Athens Eleftherios, Greece

7:46 AM EEST on September 03, 2014 (GMT +0300)
Artemida Attika | Change Station
CLOSE
Current Station
Personal Weather Station
Location: Artemis, Attika
Elevation: 112 ft
Nearby Weather Stations

Elev 112 ft 37.94 °N, 24.00 °E | Updated 7 seconds ago

Mostly Cloudy
Mostly Cloudy
77.5 °F
Feels Like 79 °F
N
2.2
Wind Variable Wind from NW
Gusts 4.5 mph

Today
High -- | Low -- °F
--% Chance of Precip.
Yesterday
High -- | Low -- °F
Precip. -- in
6:55 AM 7:51 PM
First Quarter, 58% visible
Pressure 29.68 in
Visibility 6.2 miles
Clouds Scattered Clouds 2500 ft
Mostly Cloudy 7000 ft
Heat Index 79 °F
Dew Point 64 °F
Humidity 63%
Rainfall 0.00 in
Snow Depth Not available.
UV 0 out of 12
Pollen Not available.
Air Quality Not available.
Flu Activity Not available.
METAR LGAV 030420Z 20006KT 9999 SCT025 BKN070 25/17 Q1005 NOSIG

More Conditions Fewer Conditions

Pressure 29.68 in
Visibility 6.2 miles
Clouds Scattered Clouds 2500 ft
Mostly Cloudy 7000 ft
Heat Index 79 °F
Dew Point 64 °F
Humidity 63%
Rainfall 0.00 in
Snow Depth Not available.
UV 0 out of 12
Pollen Not available.
Air Quality Not available.
Flu Activity Not available.
METAR LGAV 030420Z 20006KT 9999 SCT025 BKN070 25/17 Q1005 NOSIG

More Conditions Fewer Conditions

10-Day Weather Forecast

Almanac

Astronomy

Sep. 03, 2014 Rise Set
Actual Time 6:55 AM EEST 7:51 PM EEST
Civil Twilight 6:28 AM EEST 8:17 PM EEST
Nautical Twilight 5:56 AM EEST 8:49 PM EEST
Astronomical Twilight 5:23 AM EEST 9:22 PM EEST
Moon 3:11 PM EEST 12:36 AM EEST
Length of Visible Light 13h 49m
Length of Day
12h 55m
Tomorrow will be 2m 22s shorter.
First Quarter, 58% of the Moon is Illuminated
Today
First Quarter
Sep 8
Full
Sep 15
Last Quarter
Sep 24
New
Oct 1
First Quarter

Yesterday's Extremes

Country Highs Country Lows

Community

WunderPhotos

Upload Photos

1,749,875 photos uploaded!

Nearby

Snow Depth

Not available.

Earthquake Activity

City Distance Mag. Time & Date
No recent earthquake activity has been reported nearby.
Minimum magnitude displayed is 2.5.

Coastal Water Temperatures

Place Temperature
No Stations Reporting

Nearby Weather Stations